createdAt,value
2018-07-23T00:00:33.308Z,0
2018-07-23T00:01:33.045Z,0
2018-07-23T00:02:33.026Z,0
2018-07-23T00:03:33.541Z,0
2018-07-23T00:04:33.260Z,0
2018-07-23T00:05:33.257Z,0
2018-07-23T00:06:33.514Z,0
2018-07-23T00:07:33.235Z,0
2018-07-23T00:08:33.170Z,0
2018-07-23T00:09:33.496Z,0
2018-07-23T00:10:33.474Z,0
2018-07-23T00:11:33.460Z,0
2018-07-23T00:12:33.446Z,0
2018-07-23T00:13:33.468Z,0
2018-07-23T00:14:33.169Z,0
2018-07-23T00:15:33.169Z,0
2018-07-23T00:16:33.149Z,0
2018-07-23T00:17:33.135Z,0
2018-07-23T00:18:33.389Z,0
2018-07-23T00:19:33.112Z,0
2018-07-23T00:20:32.851Z,0
2018-07-23T00:21:33.371Z,0
2018-07-23T00:22:33.094Z,0
2018-07-23T00:23:33.340Z,0
2018-07-23T00:24:33.334Z,0
2018-07-23T00:25:33.057Z,0
2018-07-23T00:26:33.319Z,0
2018-07-23T00:27:33.302Z,0
2018-07-23T00:28:33.033Z,0
2018-07-23T00:29:32.991Z,0
2018-07-23T00:30:33.011Z,0
2018-07-23T00:31:33.261Z,0
2018-07-23T00:32:32.982Z,0
2018-07-23T00:33:32.720Z,0
2018-07-23T00:34:32.971Z,0
2018-07-23T00:35:32.961Z,0
2018-07-23T00:36:33.207Z,0
2018-07-23T00:37:32.952Z,0
2018-07-23T00:38:32.667Z,0
2018-07-23T00:39:32.955Z,0
2018-07-23T00:40:32.910Z,0
2018-07-23T00:41:33.157Z,0
2018-07-23T00:42:33.148Z,0
2018-07-23T00:43:33.141Z,0
2018-07-23T00:44:32.874Z,0
2018-07-23T00:45:32.593Z,0
2018-07-23T00:46:32.847Z,0
2018-07-23T00:47:32.839Z,0
2018-07-23T00:48:32.829Z,0
2018-07-23T00:49:33.084Z,0
2018-07-23T00:50:33.079Z,0
2018-07-23T00:51:33.066Z,0
2018-07-23T00:52:32.792Z,0
2018-07-23T00:53:33.035Z,0
2018-07-23T00:54:32.500Z,0
2018-07-23T00:55:33.019Z,0
2018-07-23T00:56:32.997Z,0
2018-07-23T00:57:32.729Z,0
2018-07-23T00:58:32.990Z,0
2018-07-23T00:59:32.709Z,0
2018-07-23T01:00:32.699Z,0
2018-07-23T01:01:32.695Z,0
2018-07-23T01:02:32.688Z,0
2018-07-23T01:03:32.404Z,0
2018-07-23T01:04:32.920Z,0
2018-07-23T01:05:32.915Z,0
2018-07-23T01:06:32.655Z,0
2018-07-23T01:07:32.628Z,0
2018-07-23T01:08:32.373Z,0
2018-07-23T01:09:32.606Z,0
2018-07-23T01:10:32.609Z,0
2018-07-23T01:11:32.855Z,0
2018-07-23T01:12:32.313Z,0
2018-07-23T01:13:32.840Z,0
2018-07-23T01:14:32.306Z,0
2018-07-23T01:15:32.285Z,0
2018-07-23T01:16:32.017Z,0
2018-07-23T01:17:32.788Z,0
2018-07-23T01:18:32.262Z,0
2018-07-23T01:19:32.501Z,0
2018-07-23T01:20:32.758Z,0
2018-07-23T01:21:32.484Z,0
2018-07-23T01:22:32.483Z,0
2018-07-23T01:23:32.461Z,0
2018-07-23T01:24:32.443Z,0
2018-07-23T01:25:32.183Z,0
2018-07-23T01:26:32.429Z,0
2018-07-23T01:27:32.675Z,0
2018-07-23T01:28:32.404Z,0
2018-07-23T01:29:32.403Z,0
2018-07-23T01:30:32.664Z,0
2018-07-23T01:31:32.633Z,0
2018-07-23T01:32:32.371Z,0
2018-07-23T01:33:32.357Z,0
2018-07-23T01:34:31.820Z,0
2018-07-23T01:35:32.073Z,0
2018-07-23T01:36:32.330Z,0
2018-07-23T01:37:32.315Z,0
2018-07-23T01:38:32.303Z,0
2018-07-23T01:39:32.291Z,0
2018-07-23T01:40:32.281Z,0
2018-07-23T01:41:32.003Z,0
2018-07-23T01:42:32.266Z,0
2018-07-23T01:43:32.249Z,0
2018-07-23T01:44:32.253Z,0
2018-07-23T01:45:32.488Z,0
2018-07-23T01:46:32.518Z,0
2018-07-23T01:47:32.201Z,0
2018-07-23T01:48:32.188Z,0
2018-07-23T01:49:32.187Z,0
2018-07-23T01:50:31.911Z,0
2018-07-23T01:51:32.162Z,0
2018-07-23T01:52:31.881Z,0
2018-07-23T01:53:32.137Z,0
2018-07-23T01:54:32.129Z,0
2018-07-23T01:55:32.122Z,0
2018-07-23T01:56:32.376Z,0
2018-07-23T01:57:32.360Z,0
2018-07-23T01:58:32.083Z,0
2018-07-23T01:59:32.075Z,0
2018-07-23T02:00:32.333Z,0
2018-07-23T02:01:32.060Z,0
2018-07-23T02:02:31.517Z,0
2018-07-23T02:03:32.039Z,0
2018-07-23T02:04:32.020Z,0
2018-07-23T02:05:32.015Z,0
2018-07-23T02:06:32.270Z,0
2018-07-23T02:07:31.988Z,0
2018-07-23T02:08:32.188Z,0
2018-07-23T02:09:32.239Z,0
2018-07-23T02:10:32.237Z,0
2018-07-23T02:11:31.684Z,0
2018-07-23T02:12:31.943Z,0
2018-07-23T02:13:31.670Z,0
2018-07-23T02:14:31.930Z,0
2018-07-23T02:15:32.171Z,0
2018-07-23T02:16:31.364Z,0
2018-07-23T02:17:31.618Z,0
2018-07-23T02:18:31.871Z,0
2018-07-23T02:19:32.120Z,0
2018-07-23T02:20:32.127Z,0
2018-07-23T02:21:31.850Z,0
2018-07-23T02:22:32.090Z,0
2018-07-23T02:23:31.566Z,0
2018-07-23T02:24:32.075Z,0
2018-07-23T02:25:32.070Z,0
2018-07-23T02:26:32.042Z,0
2018-07-23T02:27:32.037Z,0
2018-07-23T02:28:32.026Z,0
2018-07-23T02:29:31.748Z,0
2018-07-23T02:30:32.017Z,0
2018-07-23T02:31:31.996Z,0
2018-07-23T02:32:31.988Z,0
2018-07-23T02:33:31.996Z,0
2018-07-23T02:34:31.699Z,0
2018-07-23T02:35:31.699Z,0
2018-07-23T02:36:31.691Z,0
2018-07-23T02:37:31.678Z,0
2018-07-23T02:38:31.922Z,0
2018-07-23T02:39:31.924Z,0
2018-07-23T02:40:31.638Z,0
2018-07-23T02:41:31.902Z,0
2018-07-23T02:42:31.626Z,0
2018-07-23T02:43:31.605Z,0
2018-07-23T02:44:31.342Z,0
2018-07-23T02:45:31.595Z,0
2018-07-23T02:46:31.858Z,0
2018-07-23T02:47:31.571Z,0
2018-07-23T02:48:31.549Z,0
2018-07-23T02:49:31.543Z,0
2018-07-23T02:50:31.833Z,0
2018-07-23T02:51:31.781Z,0
2018-07-23T02:52:31.512Z,0
2018-07-23T02:53:31.505Z,0
2018-07-23T02:54:31.246Z,0
2018-07-23T02:55:31.223Z,0
2018-07-23T02:56:31.208Z,0
2018-07-23T02:57:31.458Z,0
2018-07-23T02:58:31.189Z,0
2018-07-23T02:59:31.812Z,0
2018-07-23T03:00:31.690Z,0
2018-07-23T03:01:31.423Z,0
2018-07-23T03:02:30.898Z,0
2018-07-23T03:03:31.137Z,4
2018-07-23T03:04:31.399Z,4
2018-07-23T03:05:31.376Z,4
2018-07-23T03:06:31.372Z,0
2018-07-23T03:07:31.623Z,0
2018-07-23T03:08:31.103Z,4
2018-07-23T03:09:31.593Z,4
2018-07-23T03:10:31.330Z,0
2018-07-23T03:11:31.051Z,4
2018-07-23T03:12:31.559Z,8
2018-07-23T03:13:31.298Z,4
2018-07-23T03:14:31.549Z,8
2018-07-23T03:15:31.276Z,8
2018-07-23T03:16:31.004Z,8
2018-07-23T03:17:31.253Z,8
2018-07-23T03:18:31.254Z,8
2018-07-23T03:19:31.250Z,12
2018-07-23T03:20:31.485Z,12
2018-07-23T03:21:31.197Z,16
2018-07-23T03:22:30.934Z,16
2018-07-23T03:23:31.184Z,20
2018-07-23T03:24:31.446Z,20
2018-07-23T03:25:31.165Z,24
2018-07-23T03:26:31.156Z,24
2018-07-23T03:27:31.425Z,28
2018-07-23T03:28:31.126Z,32
2018-07-23T03:29:31.125Z,36
2018-07-23T03:30:31.122Z,40
2018-07-23T03:31:31.109Z,40
2018-07-23T03:32:31.352Z,48
2018-07-23T03:33:31.087Z,52
2018-07-23T03:34:31.340Z,60
2018-07-23T03:35:31.052Z,64
2018-07-23T03:36:31.048Z,72
2018-07-23T03:37:31.304Z,76
2018-07-23T03:38:30.763Z,80
2018-07-23T03:39:31.275Z,92
2018-07-23T03:40:31.015Z,96
2018-07-23T03:41:31.005Z,104
2018-07-23T03:42:31.248Z,112
2018-07-23T03:43:30.988Z,120
2018-07-23T03:44:30.959Z,128
2018-07-23T03:45:30.951Z,140
2018-07-23T03:46:30.941Z,148
2018-07-23T03:47:30.414Z,156
2018-07-23T03:48:31.185Z,168
2018-07-23T03:49:30.660Z,180
2018-07-23T03:50:31.164Z,188
2018-07-23T03:51:30.365Z,204
2018-07-23T03:52:31.195Z,216
2018-07-23T03:53:30.600Z,232
2018-07-23T03:54:30.852Z,244
2018-07-23T03:55:31.106Z,260
2018-07-23T03:56:30.837Z,272
2018-07-23T03:57:30.562Z,284
2018-07-23T03:58:30.815Z,300
2018-07-23T03:59:31.086Z,316
2018-07-23T04:00:30.531Z,336
2018-07-23T04:01:30.779Z,352
2018-07-23T04:02:30.303Z,364
2018-07-23T04:03:30.853Z,380
2018-07-23T04:04:31.009Z,400
2018-07-23T04:05:30.741Z,416
2018-07-23T04:06:30.731Z,432
2018-07-23T04:07:30.723Z,452
2018-07-23T04:08:30.655Z,468
2018-07-23T04:09:30.695Z,488
2018-07-23T04:10:30.960Z,504
2018-07-23T04:11:30.937Z,524
2018-07-23T04:12:30.409Z,536
2018-07-23T04:13:30.127Z,560
2018-07-23T04:14:30.909Z,580
2018-07-23T04:15:30.893Z,596
2018-07-23T04:16:30.354Z,612
2018-07-23T04:17:31.153Z,632
2018-07-23T04:18:30.603Z,656
2018-07-23T04:19:30.581Z,676
2018-07-23T04:20:30.048Z,696
2018-07-23T04:21:30.300Z,712
2018-07-23T04:22:30.557Z,728
2018-07-23T04:23:30.279Z,748
2018-07-23T04:24:30.534Z,764
2018-07-23T04:25:29.991Z,784
2018-07-23T04:26:30.509Z,804
2018-07-23T04:27:30.761Z,820
2018-07-23T04:28:30.483Z,836
2018-07-23T04:29:30.214Z,856
2018-07-23T04:30:30.461Z,876
2018-07-23T04:31:30.449Z,892
2018-07-23T04:32:30.192Z,908
2018-07-23T04:33:30.188Z,928
2018-07-23T04:34:30.416Z,940
2018-07-23T04:35:30.405Z,956
2018-07-23T04:36:30.399Z,972
2018-07-23T04:37:30.655Z,988
2018-07-23T04:38:30.640Z,1004
2018-07-23T04:39:30.627Z,1020
2018-07-23T04:40:30.622Z,1032
2018-07-23T04:41:30.339Z,1048
2018-07-23T04:42:30.679Z,1060
2018-07-23T04:43:30.367Z,1076
2018-07-23T04:44:30.569Z,1092
2018-07-23T04:45:30.043Z,1104
2018-07-23T04:46:30.302Z,1116
2018-07-23T04:47:30.276Z,1128
2018-07-23T04:48:30.283Z,1144
2018-07-23T04:49:30.358Z,1152
2018-07-23T04:50:30.514Z,1168
2018-07-23T04:51:30.503Z,1176
2018-07-23T04:52:30.231Z,1192
2018-07-23T04:53:30.221Z,1200
2018-07-23T04:54:30.205Z,1204
2018-07-23T04:55:30.460Z,1208
2018-07-23T04:56:30.453Z,1208
2018-07-23T04:57:29.907Z,1232
2018-07-23T04:58:30.419Z,1256
2018-07-23T04:59:29.877Z,1280
2018-07-23T05:00:30.400Z,1296
2018-07-23T05:01:30.126Z,1312
2018-07-23T05:02:30.135Z,1324
2018-07-23T05:03:29.853Z,1332
2018-07-23T05:04:30.104Z,1344
2018-07-23T05:05:29.823Z,1356
2018-07-23T05:06:30.340Z,1364
2018-07-23T05:07:29.788Z,1372
2018-07-23T05:08:30.312Z,1380
2018-07-23T05:09:30.323Z,1392
2018-07-23T05:10:30.096Z,1400
2018-07-23T05:11:30.051Z,1412
2018-07-23T05:12:29.998Z,1424
2018-07-23T05:13:29.988Z,1432
2018-07-23T05:14:29.983Z,1444
2018-07-23T05:15:30.251Z,1456
2018-07-23T05:16:29.701Z,1468
2018-07-23T05:17:29.682Z,1480
2018-07-23T05:18:29.941Z,1484
2018-07-23T05:19:30.245Z,1496
2018-07-23T05:20:29.917Z,1504
2018-07-23T05:21:29.901Z,1516
2018-07-23T05:22:29.626Z,1528
2018-07-23T05:23:29.882Z,1532
2018-07-23T05:24:29.636Z,1548
2018-07-23T05:25:29.856Z,1552
2018-07-23T05:26:29.851Z,1556
2018-07-23T05:27:29.590Z,1568
2018-07-23T05:28:29.560Z,1576
2018-07-23T05:29:29.816Z,1580
2018-07-23T05:30:29.803Z,1588
2018-07-23T05:31:29.795Z,1588
2018-07-23T05:32:29.776Z,1588
2018-07-23T05:33:29.512Z,1588
2018-07-23T05:34:30.024Z,1592
2018-07-23T05:35:29.495Z,1600
2018-07-23T05:36:30.000Z,1604
2018-07-23T05:37:29.465Z,1608
2018-07-23T05:38:30.163Z,1616
2018-07-23T05:39:29.453Z,1624
2018-07-23T05:40:29.970Z,1628
2018-07-23T05:41:29.683Z,1636
2018-07-23T05:42:29.674Z,1640
2018-07-23T05:43:29.973Z,1640
2018-07-23T05:44:29.661Z,1644
2018-07-23T05:45:29.375Z,1648
2018-07-23T05:46:29.894Z,1648
2018-07-23T05:47:29.900Z,1652
2018-07-23T05:48:29.354Z,1656
2018-07-23T05:49:29.605Z,1664
2018-07-23T05:50:29.851Z,1664
2018-07-23T05:51:29.582Z,1668
2018-07-23T05:52:29.563Z,1672
2018-07-23T05:53:29.817Z,1676
2018-07-23T05:54:29.280Z,1680
2018-07-23T05:55:29.533Z,1684
2018-07-23T05:56:29.535Z,1692
2018-07-23T05:57:29.788Z,1700
2018-07-23T05:58:29.506Z,1708
2018-07-23T05:59:29.772Z,1720
2018-07-23T06:00:29.483Z,1728
2018-07-23T06:01:29.151Z,1736
2018-07-23T06:02:29.720Z,1744
2018-07-23T06:03:29.192Z,1748
2018-07-23T06:04:29.435Z,1752
2018-07-23T06:05:29.174Z,1756
2018-07-23T06:06:28.915Z,1764
2018-07-23T06:07:29.669Z,1772
2018-07-23T06:08:29.861Z,1776
2018-07-23T06:09:28.859Z,1784
2018-07-23T06:10:29.382Z,1784
2018-07-23T06:11:29.640Z,1788
2018-07-23T06:12:29.362Z,1796
2018-07-23T06:13:29.800Z,1808
2018-07-23T06:14:29.597Z,1816
2018-07-23T06:15:29.328Z,1820
2018-07-23T06:16:29.320Z,1816
2018-07-23T06:17:29.381Z,1824
2018-07-23T06:18:29.031Z,1828
2018-07-23T06:19:29.042Z,1828
2018-07-23T06:20:29.020Z,1828
2018-07-23T06:21:29.003Z,1836
2018-07-23T06:22:29.253Z,1860
2018-07-23T06:23:28.975Z,1876
2018-07-23T06:24:28.967Z,1888
2018-07-23T06:25:28.968Z,1908
2018-07-23T06:26:29.504Z,1924
2018-07-23T06:27:29.202Z,1924
2018-07-23T06:28:29.476Z,1928
2018-07-23T06:29:28.916Z,1944
2018-07-23T06:30:28.654Z,1956
2018-07-23T06:31:29.763Z,1972
2018-07-23T06:32:29.512Z,1976
2018-07-23T06:33:29.146Z,1972
2018-07-23T06:34:28.899Z,1980
2018-07-23T06:35:29.379Z,1988
2018-07-23T06:36:29.114Z,1992
2018-07-23T06:37:29.166Z,2000
2018-07-23T06:38:29.093Z,2000
2018-07-23T06:39:28.820Z,2012
2018-07-23T06:40:28.807Z,2036
2018-07-23T06:41:29.418Z,2044
2018-07-23T06:42:29.315Z,2032
2018-07-23T06:43:29.302Z,2036
2018-07-23T06:44:28.499Z,2044
2018-07-23T06:45:29.279Z,2048
2018-07-23T06:46:29.050Z,2056
2018-07-23T06:47:29.263Z,2052
2018-07-23T06:48:28.724Z,2064
2018-07-23T06:49:28.726Z,2068
2018-07-23T06:50:28.489Z,2068
2018-07-23T06:51:29.239Z,2056
2018-07-23T06:52:28.690Z,2048
2018-07-23T06:53:28.947Z,2052
2018-07-23T06:54:29.206Z,2060
2018-07-23T06:55:28.946Z,2052
2018-07-23T06:56:28.911Z,2052
2018-07-23T06:57:29.203Z,2056
2018-07-23T06:58:28.369Z,2056
2018-07-23T06:59:29.149Z,2064
2018-07-23T07:00:29.099Z,2068
2018-07-23T07:01:28.856Z,2072
2018-07-23T07:02:29.141Z,2060
2018-07-23T07:03:29.447Z,2068
2018-07-23T07:04:28.838Z,2076
2018-07-23T07:05:29.094Z,2068
2018-07-23T07:06:29.075Z,2064
2018-07-23T07:07:28.803Z,2064
2018-07-23T07:08:28.816Z,2076
2018-07-23T07:09:28.839Z,2076
2018-07-23T07:10:28.509Z,2084
2018-07-23T07:11:28.513Z,2088
2018-07-23T07:12:29.016Z,2076
2018-07-23T07:13:28.916Z,2100
2018-07-23T07:14:29.021Z,2112
2018-07-23T07:15:28.200Z,2136
2018-07-23T07:16:28.461Z,2168
2018-07-23T07:17:28.187Z,2196
2018-07-23T07:18:28.430Z,2180
2018-07-23T07:19:28.951Z,2188
2018-07-23T07:20:28.952Z,2224
2018-07-23T07:21:28.407Z,2260
2018-07-23T07:22:28.405Z,2268
2018-07-23T07:23:28.388Z,2264
2018-07-23T07:24:28.636Z,2260
2018-07-23T07:25:28.703Z,2276
2018-07-23T07:26:28.356Z,2292
2018-07-23T07:27:28.622Z,2324
2018-07-23T07:28:28.600Z,2352
2018-07-23T07:29:28.602Z,2396
2018-07-23T07:30:28.597Z,2428
2018-07-23T07:31:28.585Z,2432
2018-07-23T07:32:28.836Z,2428
2018-07-23T07:33:28.822Z,2428
2018-07-23T07:34:28.282Z,2472
2018-07-23T07:35:28.807Z,13600
2018-07-23T07:36:28.266Z,32448
2018-07-23T07:37:28.778Z,38848
2018-07-23T07:38:28.935Z,41376
2018-07-23T07:39:28.520Z,41536
2018-07-23T07:40:28.242Z,42240
2018-07-23T07:41:28.691Z,44256
2018-07-23T07:42:28.492Z,44480
2018-07-23T07:43:28.483Z,42144
2018-07-23T07:44:28.259Z,39296
2018-07-23T07:45:28.731Z,40448
2018-07-23T07:46:28.823Z,43712
2018-07-23T07:47:28.725Z,46080
2018-07-23T07:48:28.191Z,46624
2018-07-23T07:49:28.705Z,47456
2018-07-23T07:50:28.705Z,48128
2018-07-23T07:51:28.177Z,45696
2018-07-23T07:52:28.171Z,44192
2018-07-23T07:53:28.438Z,45696
2018-07-23T07:54:28.170Z,49632
2018-07-23T07:55:28.160Z,51360
2018-07-23T07:56:28.435Z,50816
2018-07-23T07:57:28.824Z,50080
2018-07-23T07:58:28.150Z,50400
2018-07-23T07:59:28.412Z,49664
2018-07-23T08:00:28.419Z,46688
2018-07-23T08:01:27.884Z,43968
2018-07-23T08:02:28.163Z,44640
2018-07-23T08:03:28.413Z,45568
2018-07-23T08:04:28.147Z,45888
2018-07-23T08:05:28.674Z,43072
2018-07-23T08:06:28.420Z,41120
2018-07-23T08:07:28.670Z,42752
2018-07-23T08:08:28.602Z,43584
2018-07-23T08:09:28.139Z,44224
2018-07-23T08:10:28.134Z,45920
2018-07-23T08:11:28.670Z,49376
2018-07-23T08:12:28.219Z,53120
2018-07-23T08:13:28.132Z,53984
2018-07-23T08:14:28.663Z,49152
2018-07-23T08:15:28.400Z,45472
2018-07-23T08:16:28.717Z,43936
2018-07-23T08:17:28.660Z,43680
2018-07-23T08:18:28.395Z,42880
2018-07-23T08:19:27.873Z,44544
2018-07-23T08:20:28.408Z,49472
2018-07-23T08:21:28.404Z,54656
2018-07-23T08:22:28.409Z,55264
2018-07-23T08:23:28.674Z,54336
2018-07-23T08:24:28.405Z,53216
2018-07-23T08:25:28.409Z,53856
2018-07-23T08:26:28.149Z,50368
2018-07-23T08:27:28.415Z,44896
2018-07-23T08:28:28.417Z,40736
2018-07-23T08:29:28.681Z,41472
2018-07-23T08:30:28.420Z,46080
2018-07-23T08:31:28.158Z,46624
2018-07-23T08:32:28.825Z,48640
2018-07-23T08:33:28.436Z,55904
2018-07-23T08:34:28.432Z,54560
2018-07-23T08:35:28.694Z,51488
2018-07-23T08:36:28.164Z,47808
2018-07-23T08:37:28.701Z,47456
2018-07-23T08:38:28.441Z,48544
2018-07-23T08:39:28.703Z,40288
2018-07-23T08:40:28.442Z,19200
2018-07-23T08:41:28.186Z,4256
2018-07-23T08:42:28.702Z,9468
2018-07-23T08:43:28.705Z,15112
2018-07-23T08:44:27.913Z,6752
2018-07-23T08:45:28.706Z,4656
2018-07-23T08:46:28.446Z,4148
2018-07-23T08:47:28.451Z,7428
2018-07-23T08:48:28.495Z,9496
2018-07-23T08:49:28.446Z,4496
2018-07-23T08:50:28.706Z,7824
2018-07-23T08:51:28.995Z,7480
2018-07-23T08:52:28.177Z,5256
2018-07-23T08:53:28.444Z,5840
2018-07-23T08:54:28.703Z,5752
2018-07-23T08:55:28.439Z,3872
2018-07-23T08:56:28.433Z,3976
2018-07-23T08:57:28.741Z,5056
2018-07-23T08:58:28.701Z,4896
2018-07-23T08:59:28.430Z,4276
2018-07-23T09:00:27.891Z,6168
2018-07-23T09:01:28.680Z,7420
2018-07-23T09:02:28.945Z,6732
2018-07-23T09:03:28.146Z,4796
2018-07-23T09:04:28.411Z,8468
2018-07-23T09:05:28.399Z,29504
2018-07-23T09:06:28.396Z,49280
2018-07-23T09:07:28.399Z,26240
2018-07-23T09:08:28.249Z,52672
2018-07-23T09:09:28.387Z,39040
2018-07-23T09:10:28.659Z,26496
2018-07-23T09:11:28.396Z,16116
2018-07-23T09:12:27.853Z,9116
2018-07-23T09:13:28.645Z,9320
2018-07-23T09:14:28.372Z,10972
2018-07-23T09:15:28.631Z,9912
2018-07-23T09:16:28.099Z,4480
2018-07-23T09:17:28.096Z,22304
2018-07-23T09:18:28.623Z,22752
2018-07-23T09:19:28.354Z,43040
2018-07-23T09:20:28.355Z,36384
2018-07-23T09:21:28.602Z,28352
2018-07-23T09:22:28.336Z,17952
2018-07-23T09:23:28.595Z,30368
2018-07-23T09:24:28.342Z,43168
2018-07-23T09:25:28.357Z,16960
2018-07-23T09:26:28.350Z,29696
2018-07-23T09:27:28.058Z,14420
2018-07-23T09:28:28.324Z,11292
2018-07-23T09:29:28.581Z,10572
2018-07-23T09:30:28.048Z,14336
2018-07-23T09:31:28.302Z,14224
2018-07-23T09:32:27.774Z,20352
2018-07-23T09:33:28.567Z,30848
2018-07-23T09:34:28.295Z,20736
2018-07-23T09:35:28.287Z,22624
2018-07-23T09:36:28.572Z,13584
2018-07-23T09:37:28.559Z,6428
2018-07-23T09:38:28.276Z,10172
2018-07-23T09:39:28.276Z,7876
2018-07-23T09:40:28.535Z,5916
2018-07-23T09:41:28.528Z,5960
2018-07-23T09:42:28.314Z,5988
2018-07-23T09:43:28.567Z,6116
2018-07-23T09:44:28.518Z,6140
2018-07-23T09:45:28.256Z,12008
2018-07-23T09:46:27.978Z,15380
2018-07-23T09:47:27.705Z,9880
2018-07-23T09:48:28.236Z,18688
2018-07-23T09:49:28.230Z,20032
2018-07-23T09:50:27.962Z,34528
2018-07-23T09:51:28.478Z,8140
2018-07-23T09:52:28.493Z,45536
2018-07-23T09:53:28.476Z,7400
2018-07-23T09:54:27.673Z,10688
2018-07-23T09:55:27.935Z,8008
2018-07-23T09:56:28.198Z,25056
2018-07-23T09:57:28.450Z,10412
2018-07-23T09:58:28.195Z,20064
2018-07-23T09:59:27.917Z,16512
2018-07-23T10:00:27.906Z,15112
2018-07-23T10:01:28.437Z,23136
2018-07-23T10:02:28.428Z,4608
2018-07-23T10:03:28.839Z,10400
2018-07-23T10:04:28.425Z,13844
2018-07-23T10:05:28.416Z,9944
2018-07-23T10:06:28.150Z,6684
2018-07-23T10:07:28.146Z,6056
2018-07-23T10:08:28.542Z,6024
2018-07-23T10:09:27.872Z,6296
2018-07-23T10:10:28.386Z,6536
2018-07-23T10:11:28.125Z,6428
2018-07-23T10:12:27.855Z,6256
2018-07-23T10:13:28.370Z,9420
2018-07-23T10:14:27.580Z,6784
2018-07-23T10:15:28.116Z,6368
2018-07-23T10:16:28.099Z,10632
2018-07-23T10:17:28.093Z,17932
2018-07-23T10:18:27.824Z,16064
2018-07-23T10:19:27.836Z,39584
2018-07-23T10:20:28.074Z,30880
2018-07-23T10:21:28.074Z,47648
2018-07-23T10:22:28.080Z,45184
2018-07-23T10:23:27.799Z,20864
2018-07-23T10:24:28.057Z,8420
2018-07-23T10:25:27.837Z,8664
2018-07-23T10:26:28.115Z,20960
2018-07-23T10:27:28.054Z,32192
2018-07-23T10:28:28.307Z,48832
2018-07-23T10:29:28.118Z,81824
2018-07-23T10:30:28.035Z,79616
2018-07-23T10:31:28.069Z,77312
2018-07-23T10:32:28.016Z,76736
2018-07-23T10:33:28.288Z,78368
2018-07-23T10:34:27.761Z,81376
2018-07-23T10:35:28.226Z,83776
2018-07-23T10:36:28.019Z,87040
2018-07-23T10:37:28.284Z,90432
2018-07-23T10:38:27.752Z,92288
2018-07-23T10:39:28.285Z,94304
2018-07-23T10:40:27.484Z,89952
2018-07-23T10:41:28.023Z,87136
2018-07-23T10:42:28.020Z,84064
2018-07-23T10:43:28.013Z,80928
2018-07-23T10:44:27.757Z,77824
2018-07-23T10:45:28.282Z,77472
2018-07-23T10:46:27.757Z,80480
2018-07-23T10:47:28.025Z,83296
2018-07-23T10:48:28.296Z,86752
2018-07-23T10:49:28.040Z,90368
2018-07-23T10:50:28.033Z,92224
2018-07-23T10:51:28.049Z,91488
2018-07-23T10:52:27.777Z,86048
2018-07-23T10:53:28.068Z,80640
2018-07-23T10:54:27.790Z,75456
2018-07-23T10:55:28.060Z,71712
2018-07-23T10:56:28.334Z,71552
2018-07-23T10:57:28.064Z,77504
2018-07-23T10:58:28.068Z,88640
2018-07-23T10:59:28.080Z,100352
2018-07-23T11:00:28.077Z,110080
2018-07-23T11:01:28.363Z,116992
2018-07-23T11:02:28.351Z,116640
2018-07-23T11:03:27.839Z,109696
2018-07-23T11:04:27.995Z,96512
2018-07-23T11:05:27.575Z,79200
2018-07-23T11:06:27.849Z,71072
2018-07-23T11:07:28.358Z,64384
2018-07-23T11:08:28.167Z,65216
2018-07-23T11:09:28.129Z,72416
2018-07-23T11:10:28.139Z,87456
2018-07-23T11:11:28.407Z,95904
2018-07-23T11:12:28.147Z,107712
2018-07-23T11:13:27.890Z,112736
2018-07-23T11:14:27.928Z,111104
2018-07-23T11:15:28.430Z,102784
2018-07-23T11:16:28.167Z,92640
2018-07-23T11:17:28.182Z,82592
2018-07-23T11:18:28.446Z,75456
2018-07-23T11:19:28.451Z,68960
2018-07-23T11:20:27.663Z,68192
2018-07-23T11:21:28.460Z,71648
2018-07-23T11:22:28.466Z,78208
2018-07-23T11:23:28.474Z,86208
2018-07-23T11:24:28.483Z,92224
2018-07-23T11:25:47.712Z,99840
2018-07-23T11:26:28.431Z,103936
2018-07-23T11:27:28.500Z,107904
2018-07-23T11:28:28.517Z,105056
2018-07-23T11:29:27.998Z,100832
2018-07-23T11:30:27.989Z,94944
2018-07-23T11:31:28.265Z,88832
2018-07-23T11:32:28.266Z,82880
2018-07-23T11:33:28.015Z,81088
2018-07-23T11:34:28.546Z,80448
2018-07-23T11:35:28.555Z,81120
2018-07-23T11:36:28.059Z,84224
2018-07-23T11:37:28.304Z,85664
2018-07-23T11:38:28.580Z,90080
2018-07-23T11:39:28.471Z,94528
2018-07-23T11:40:28.321Z,94432
2018-07-23T11:41:28.699Z,91200
2018-07-23T11:42:28.607Z,87968
2018-07-23T11:43:28.344Z,84768
2018-07-23T11:44:28.356Z,80576
2018-07-23T11:45:28.867Z,79232
2018-07-23T11:46:32.462Z,77408
2018-07-23T11:47:28.377Z,79872
2018-07-23T11:48:28.547Z,80704
2018-07-23T11:49:28.775Z,80384
2018-07-23T11:50:28.776Z,76832
2018-07-23T11:51:28.937Z,74144
2018-07-23T11:52:28.628Z,71680
2018-07-23T11:53:29.151Z,71040
2018-07-23T11:54:28.835Z,72288
2018-07-23T11:55:28.926Z,77280
2018-07-23T11:56:28.585Z,82752
2018-07-23T11:57:28.933Z,86816
2018-07-23T11:58:28.951Z,88032
2018-07-23T11:59:28.165Z,88320
2018-07-23T12:00:28.950Z,89024
2018-07-23T12:01:28.560Z,85664
2018-07-23T12:02:28.775Z,82432
2018-07-23T12:03:28.325Z,79584
2018-07-23T12:04:28.856Z,75168
2018-07-23T12:05:28.633Z,71072
2018-07-23T12:06:28.896Z,69056
2018-07-23T12:07:28.426Z,72800
2018-07-23T12:08:29.410Z,76000
2018-07-23T12:09:28.500Z,78528
2018-07-23T12:10:28.673Z,80832
2018-07-23T12:11:28.843Z,21856
2018-07-23T12:12:28.828Z,86240
2018-07-23T12:13:28.317Z,88032
2018-07-23T12:14:28.594Z,89504
2018-07-23T12:15:28.331Z,90304
2018-07-23T12:16:28.598Z,85504
2018-07-23T12:17:28.243Z,75712
2018-07-23T12:18:28.609Z,72736
2018-07-23T12:19:28.616Z,68448
2018-07-23T12:20:28.630Z,68416
2018-07-23T12:21:28.638Z,71744
2018-07-23T12:22:28.383Z,73600
2018-07-23T12:23:28.653Z,82784
2018-07-23T12:24:28.932Z,86368
2018-07-23T12:25:28.413Z,91840
2018-07-23T12:26:28.868Z,95232
2018-07-23T12:27:28.627Z,93120
2018-07-23T12:28:28.428Z,90496
2018-07-23T12:29:28.704Z,87200
2018-07-23T12:30:28.981Z,80256
2018-07-23T12:31:28.468Z,78048
2018-07-23T12:32:29.428Z,75872
2018-07-23T12:33:28.742Z,80480
2018-07-23T12:34:28.765Z,87872
2018-07-23T12:35:28.758Z,91776
2018-07-23T12:36:28.760Z,95616
2018-07-23T12:37:28.515Z,95776
2018-07-23T12:38:28.524Z,95328
2018-07-23T12:39:29.128Z,94112
2018-07-23T12:40:28.545Z,82144
2018-07-23T12:41:29.085Z,34592
2018-07-23T12:42:29.082Z,80896
2018-07-23T12:43:28.826Z,84032
2018-07-23T12:44:29.099Z,89184
2018-07-23T12:45:28.846Z,88256
2018-07-23T12:46:28.588Z,86784
2018-07-23T12:47:29.137Z,90016
2018-07-23T12:48:28.603Z,90272
2018-07-23T12:49:29.135Z,88704
2018-07-23T12:50:29.139Z,90016
2018-07-23T12:51:28.893Z,93504
2018-07-23T12:52:29.168Z,97120
2018-07-23T12:53:28.915Z,98752
2018-07-23T12:54:28.917Z,96064
2018-07-23T12:55:29.179Z,91232
2018-07-23T12:56:28.669Z,90048
2018-07-23T12:57:29.203Z,88576
2018-07-23T12:58:28.948Z,83776
2018-07-23T12:59:29.004Z,82336
2018-07-23T13:00:29.225Z,87712
2018-07-23T13:01:28.967Z,94944
2018-07-23T13:02:28.975Z,97024
2018-07-23T13:03:28.717Z,99008
2018-07-23T13:04:28.989Z,99648
2018-07-23T13:05:28.735Z,96928
2018-07-23T13:06:28.741Z,89984
2018-07-23T13:07:29.018Z,83136
2018-07-23T13:08:29.021Z,78976
2018-07-23T13:09:29.300Z,80032
2018-07-23T13:10:29.044Z,85088
2018-07-23T13:11:29.317Z,91360
2018-07-23T13:12:29.322Z,97472
2018-07-23T13:13:29.333Z,100544
2018-07-23T13:14:29.330Z,98912
2018-07-23T13:15:29.093Z,94080
2018-07-23T13:16:28.867Z,89760
2018-07-23T13:17:28.829Z,85920
2018-07-23T13:18:29.368Z,84096
2018-07-23T13:19:29.372Z,82912
2018-07-23T13:20:29.118Z,82592
2018-07-23T13:21:28.860Z,86112
2018-07-23T13:22:28.875Z,88192
2018-07-23T13:23:29.426Z,86848
2018-07-23T13:24:28.625Z,83776
2018-07-23T13:25:29.278Z,82336
2018-07-23T13:26:28.900Z,83296
2018-07-23T13:27:29.450Z,81088
2018-07-23T13:28:29.187Z,78720
2018-07-23T13:29:29.184Z,79008
2018-07-23T13:30:28.935Z,76608
2018-07-23T13:31:29.200Z,72800